Terminal Aerodrome Forecast
Issued by NWS

Home | Current Version | Previous Version | Text Only | Print | Product List | Glossary On
Versions: 1 2 3 4 5 6 7 8 9 10 11 12 13 14 15 16 17 18 19 20 21
255
FTUS43 KLSX 201036 AAB
TAFCPS
TAF AMD
KCPS 201036Z 2011/2106 00000KT P6SM OVC018
      TEMPO 2011/2012 2SM BR OVC010
     FM201800 16008KT 5SM BR OVC012
     FM202000 16009KT P6SM OVC015=

USA.gov is the U.S. government's official web portal to all federal, state and local government web resources and services.